Time;durP1;ratioP1;P1;durP2;ratioP2;P2;SDS_P1;SDS_P2;PMS_P1;PMS_P2;Temp;Humidity;BMP_temperature;BMP_pressure;BME280_temperature;BME280_humidity;BME280_pressure;Samples;Min_cycle;Max_cycle;Signal;HPM_P1;HPM_P2
2022/03/09 00:00:20;;;;;;;17.83;8.40;;;;;;;1.63;53.92;102657.19;4966102;28;20031;-50
2022/03/09 00:02:46;;;;;;;19.52;7.82;;;;;;;1.59;54.37;102659.25;4962353;28;20046;-47
2022/03/09 00:05:11;;;;;;;23.83;9.02;;;;;;;1.55;54.25;102663.16;4969185;28;20432;-48
2022/03/09 00:07:37;;;;;;;21.23;8.50;;;;;;;1.54;54.37;102658.88;4968910;28;21839;-49
2022/03/09 00:10:06;;;;;;;18.63;8.48;;;;;;;1.50;54.32;102668.88;4967780;28;20488;-46
2022/03/09 00:12:32;;;;;;;17.98;9.23;;;;;;;1.49;54.58;102667.22;4963788;28;20030;-48
2022/03/09 00:14:58;;;;;;;22.83;9.77;;;;;;;1.46;54.68;102667.50;4967706;28;20112;-46
2022/03/09 00:17:24;;;;;;;20.55;8.95;;;;;;;1.29;55.40;102676.16;4965986;28;20035;-47
2022/03/09 00:19:49;;;;;;;21.63;8.40;;;;;;;1.26;54.98;102671.16;4968947;28;20124;-47
2022/03/09 00:22:15;;;;;;;16.58;8.77;;;;;;;1.27;55.31;102671.97;4966470;28;20034;-48
2022/03/09 00:24:41;;;;;;;23.27;8.63;;;;;;;1.27;55.23;102685.19;4964497;28;20030;-51
2022/03/09 00:27:07;;;;;;;19.80;8.50;;;;;;;1.17;55.18;102675.44;4967760;28;20085;-47
2022/03/09 00:29:33;;;;;;;15.52;8.02;;;;;;;1.16;55.20;102679.06;4962804;28;20121;-48
2022/03/09 00:31:58;;;;;;;20.45;9.52;;;;;;;1.18;54.83;102673.63;4960452;28;20027;-52
2022/03/09 00:34:24;;;;;;;21.42;9.35;;;;;;;1.17;54.93;102674.63;4965327;28;20066;-47
2022/03/09 00:36:49;;;;;;;19.88;9.13;;;;;;;1.17;54.81;102661.41;4968873;28;20081;-46
2022/03/09 00:39:15;;;;;;;21.52;9.40;;;;;;;1.17;55.18;102669.34;4964884;28;20485;-49
2022/03/09 00:41:40;;;;;;;21.58;9.35;;;;;;;1.15;54.88;102663.34;4966052;28;20030;-47
2022/03/09 00:44:06;;;;;;;18.85;9.10;;;;;;;1.14;55.10;102659.88;4967056;28;20566;-47
2022/03/09 00:46:32;;;;;;;18.80;9.07;;;;;;;1.14;55.13;102669.63;4965027;28;20055;-49
2022/03/09 00:48:57;;;;;;;23.08;9.38;;;;;;;1.12;55.19;102666.28;4968717;28;20023;-46
2022/03/09 00:51:23;;;;;;;21.45;8.98;;;;;;;1.10;55.07;102662.94;4966741;28;20164;-47
2022/03/09 00:53:48;;;;;;;19.13;9.30;;;;;;;1.07;54.84;102668.47;4965228;28;20019;-49
2022/03/09 00:56:14;;;;;;;17.92;8.50;;;;;;;1.04;55.25;102666.97;4965528;28;20054;-48
2022/03/09 00:58:41;;;;;;;17.70;8.35;;;;;;;1.03;54.88;102660.00;4966232;28;20520;-46
2022/03/09 01:01:07;;;;;;;17.42;8.35;;;;;;;1.01;55.22;102658.50;4970056;28;20030;-47
2022/03/09 01:03:32;;;;;;;14.57;7.78;;;;;;;0.98;54.96;102654.31;4970413;28;21180;-49
2022/03/09 01:05:58;;;;;;;16.83;7.85;;;;;;;0.95;54.82;102651.97;4967309;28;20054;-48
2022/03/09 01:08:23;;;;;;;18.05;8.90;;;;;;;0.92;55.12;102651.41;4970888;28;20044;-50
2022/03/09 01:10:49;;;;;;;17.02;9.23;;;;;;;0.89;55.32;102652.50;4970367;28;20030;-48
2022/03/09 01:13:14;;;;;;;22.25;9.98;;;;;;;0.87;55.26;102647.34;4968541;28;20057;-47
2022/03/09 01:15:40;;;;;;;19.98;9.15;;;;;;;0.85;55.22;102651.94;4965901;28;20485;-49
2022/03/09 01:18:05;;;;;;;23.52;9.32;;;;;;;0.83;55.35;102647.78;4969855;28;20425;-47
2022/03/09 01:20:31;;;;;;;14.55;8.10;;;;;;;0.80;55.57;102640.97;4967491;28;20181;-48
2022/03/09 01:22:57;;;;;;;17.30;9.05;;;;;;;0.79;55.15;102635.84;4967996;28;20101;-48
2022/03/09 01:25:22;;;;;;;14.88;8.43;;;;;;;0.75;55.87;102639.72;4967811;28;20030;-47
2022/03/09 01:27:48;;;;;;;17.42;8.45;;;;;;;0.73;55.34;102642.50;4970791;28;20492;-49
2022/03/09 01:30:14;;;;;;;18.27;9.00;;;;;;;0.69;55.19;102643.72;4970104;28;20030;-47
2022/03/09 01:32:39;;;;;;;17.33;8.38;;;;;;;0.66;55.53;102636.09;4969421;28;20053;-47
2022/03/09 01:35:05;;;;;;;16.60;7.90;;;;;;;0.66;55.53;102635.25;4969684;28;20058;-49
2022/03/09 01:37:31;;;;;;;17.90;8.98;;;;;;;0.63;56.10;102633.75;4971441;28;20481;-48
2022/03/09 01:39:56;;;;;;;16.10;8.38;;;;;;;0.60;55.61;102634.00;4965144;28;20019;-48
2022/03/09 01:42:22;;;;;;;18.77;9.80;;;;;;;0.58;55.87;102625.41;4970149;28;20043;-48
2022/03/09 01:44:48;;;;;;;20.15;9.13;;;;;;;0.55;55.75;102625.69;4971731;28;20058;-49
2022/03/09 01:47:13;;;;;;;14.65;8.35;;;;;;;0.52;56.11;102621.50;4965051;28;20106;-48
2022/03/09 01:49:39;;;;;;;19.83;9.20;;;;;;;0.50;55.63;102619.97;4966422;28;20034;-47
2022/03/09 01:52:07;;;;;;;16.30;8.82;;;;;;;0.47;56.09;102618.44;4965937;28;20049;-51
2022/03/09 01:54:33;;;;;;;17.67;9.18;;;;;;;0.44;55.97;102609.97;4969293;28;20157;-48
2022/03/09 01:57:00;;;;;;;20.25;9.48;;;;;;;0.42;56.47;102614.56;4969055;28;20034;-49
2022/03/09 01:59:26;;;;;;;18.75;8.40;;;;;;;0.40;56.06;102621.75;4967889;28;20033;-49
2022/03/09 02:01:53;;;;;;;21.10;8.85;;;;;;;0.37;56.28;102620.25;4969688;28;20057;-49
2022/03/09 02:04:19;;;;;;;15.77;7.97;;;;;;;0.31;56.25;102620.75;4966804;28;20501;-51
2022/03/09 02:06:45;;;;;;;16.33;7.93;;;;;;;0.26;56.25;102618.53;4969167;28;20031;-50
2022/03/09 02:11:57;;;;;;;14.38;7.90;;;;;;;0.17;56.56;102610.59;4969298;28;20122;-46
2022/03/09 02:14:31;;;;;;;13.95;7.25;;;;;;;0.08;56.74;102617.50;4966780;28;20405;-47
2022/03/09 02:16:58;;;;;;;12.15;6.70;;;;;;;0.07;56.84;102607.94;4969731;28;20037;-47
2022/03/09 02:19:24;;;;;;;16.85;7.95;;;;;;;0.07;56.93;102607.94;4961002;28;20030;-51
2022/03/09 02:22:01;;;;;;;13.55;7.05;;;;;;;0.07;57.18;102607.09;4967895;28;20089;-48
2022/03/09 02:24:27;;;;;;;16.63;7.75;;;;;;;0.07;56.60;102607.94;4967138;28;20022;-49
2022/03/09 02:26:53;;;;;;;13.35;7.18;;;;;;;0.06;57.22;102614.16;4967645;28;20077;-46
2022/03/09 02:29:18;;;;;;;13.15;6.57;;;;;;;0.05;57.27;102609.88;4959992;28;20055;-50
2022/03/09 02:31:44;;;;;;;14.50;7.38;;;;;;;0.04;56.84;102608.22;4966746;28;20030;-49
2022/03/09 02:34:09;;;;;;;13.95;8.27;;;;;;;0.02;56.66;102607.50;4970435;28;20038;-48
2022/03/09 02:36:35;;;;;;;14.90;8.95;;;;;;;-0.01;56.95;102608.59;4967148;28;20191;-49
2022/03/09 02:39:00;;;;;;;14.50;8.02;;;;;;;-0.03;56.70;102612.31;4966545;28;20045;-47
2022/03/09 02:41:33;;;;;;;14.82;7.93;;;;;;;-0.07;57.52;102608.28;4961714;28;20477;-50
2022/03/09 02:44:00;;;;;;;14.13;8.15;;;;;;;-0.12;57.80;102611.34;4965592;28;20030;-48
2022/03/09 02:46:26;;;;;;;15.25;7.68;;;;;;;-0.13;57.18;102611.47;4964584;28;20165;-46
2022/03/09 02:48:52;;;;;;;18.27;7.40;;;;;;;-0.15;57.25;102613.41;4966417;28;20119;-47
2022/03/09 02:51:18;;;;;;;12.73;7.43;;;;;;;-0.16;57.49;102601.19;4969401;28;20030;-47
2022/03/09 02:53:43;;;;;;;14.05;7.28;;;;;;;-0.17;57.64;102610.06;4969588;28;20026;-48
2022/03/09 02:56:09;;;;;;;13.20;6.68;;;;;;;-0.19;57.42;102618.06;4966570;28;20632;-48
2022/03/09 02:58:34;;;;;;;13.18;7.55;;;;;;;-0.21;57.79;102606.00;4965240;28;20109;-50
2022/03/09 03:01:00;;;;;;;16.92;7.75;;;;;;;-0.22;57.52;102614.88;4963260;28;20023;-47
2022/03/09 03:03:25;;;;;;;15.68;7.97;;;;;;;-0.25;57.48;102612.50;4964175;28;20031;-48
2022/03/09 03:05:51;;;;;;;14.02;7.88;;;;;;;-0.28;57.44;102625.94;4969769;28;20149;-48
2022/03/09 03:08:16;;;;;;;12.30;6.93;;;;;;;-0.32;57.52;102626.22;4967419;28;21316;-47
2022/03/09 03:10:42;;;;;;;16.63;7.50;;;;;;;-0.34;57.73;102622.88;4965136;28;20089;-49
2022/03/09 03:13:07;;;;;;;15.25;7.05;;;;;;;-0.34;57.91;102624.69;4967850;28;20030;-46
2022/03/09 03:15:33;;;;;;;15.20;7.88;;;;;;;-0.36;57.64;102623.94;4968413;28;20030;-49
2022/03/09 03:17:59;;;;;;;13.93;7.70;;;;;;;-0.38;57.35;102624.09;4968936;28;20041;-46
2022/03/09 03:20:25;;;;;;;12.75;7.18;;;;;;;-0.39;57.21;102622.41;4969905;28;20031;-49
2022/03/09 03:22:50;;;;;;;16.10;7.32;;;;;;;-0.41;57.22;102626.97;4968142;28;20499;-48
2022/03/09 03:25:16;;;;;;;12.77;6.95;;;;;;;-0.45;57.87;102624.75;4964420;28;20034;-46
2022/03/09 03:27:42;;;;;;;14.18;6.32;;;;;;;-0.46;57.53;102626.53;4969201;28;20037;-50
2022/03/09 03:30:07;;;;;;;13.43;7.35;;;;;;;-0.48;58.02;102623.22;4962364;28;20073;-50
2022/03/09 03:32:33;;;;;;;12.68;6.40;;;;;;;-0.50;57.93;102624.31;4964990;28;20057;-50
2022/03/09 03:34:58;;;;;;;17.65;6.28;;;;;;;-0.52;57.49;102631.50;4964836;28;20089;-46
2022/03/09 03:37:24;;;;;;;14.25;6.53;;;;;;;-0.55;57.98;102627.31;4963092;28;20027;-48
2022/03/09 03:39:50;;;;;;;14.27;7.40;;;;;;;-0.57;57.61;102628.41;4963360;28;20077;-49
2022/03/09 03:42:15;;;;;;;13.65;6.55;;;;;;;-0.58;58.15;102629.38;4969856;28;20053;-50
2022/03/09 03:44:41;;;;;;;13.30;6.55;;;;;;;-0.62;57.77;102631.44;4964569;28;20037;-48
2022/03/09 03:47:06;;;;;;;15.00;6.88;;;;;;;-0.62;57.93;102626.16;4968687;28;20523;-48
2022/03/09 03:49:32;;;;;;;12.70;6.28;;;;;;;-0.65;57.97;102632.53;4967796;28;20129;-47
2022/03/09 03:51:57;;;;;;;15.98;7.07;;;;;;;-0.67;57.57;102633.63;4963944;28;20567;-47
2022/03/09 03:54:23;;;;;;;11.02;6.32;;;;;;;-0.68;57.67;102637.22;4965773;28;20023;-50
2022/03/09 03:56:48;;;;;;;14.18;6.82;;;;;;;-0.71;57.65;102640.13;4965084;28;20081;-57
2022/03/09 03:59:14;;;;;;;13.00;6.70;;;;;;;-0.74;58.05;102643.81;4959154;28;20023;-47
2022/03/09 04:01:40;;;;;;;12.48;6.32;;;;;;;-0.77;58.22;102638.81;4966329;28;20096;-48
2022/03/09 04:04:06;;;;;;;15.95;8.10;;;;;;;-0.93;58.56;102641.03;4965626;28;20114;-47
2022/03/09 04:06:31;;;;;;;15.23;8.57;;;;;;;-1.09;59.51;102636.19;4963792;28;20026;-48
2022/03/09 04:08:56;;;;;;;17.83;8.75;;;;;;;-1.19;59.69;102640.56;4965787;28;20023;-48
2022/03/09 04:11:22;;;;;;;20.75;9.23;;;;;;;-1.19;59.41;102643.19;4966113;28;20037;-47
2022/03/09 04:13:48;;;;;;;22.30;10.52;;;;;;;-1.15;59.74;102641.97;4966336;28;20536;-49
2022/03/09 04:16:13;;;;;;;23.00;11.65;;;;;;;-1.12;59.30;102640.88;4964192;28;20061;-49
2022/03/09 04:18:39;;;;;;;27.63;12.93;;;;;;;-1.13;59.20;102636.56;4963738;28;20031;-47
2022/03/09 04:21:05;;;;;;;24.88;12.40;;;;;;;-1.12;59.18;102644.34;4964182;28;20055;-48
2022/03/09 04:23:30;;;;;;;22.92;12.45;;;;;;;-1.09;59.14;102645.88;4965811;28;20034;-48
2022/03/09 04:25:56;;;;;;;25.52;11.95;;;;;;;-1.08;58.91;102648.38;4966288;28;20109;-47
2022/03/09 04:28:21;;;;;;;23.98;11.93;;;;;;;-1.08;58.70;102651.00;4964680;28;20111;-47
2022/03/09 04:30:47;;;;;;;26.33;11.68;;;;;;;-1.08;58.95;102643.13;4960897;28;20035;-49
2022/03/09 04:33:12;;;;;;;26.05;12.38;;;;;;;-1.07;58.96;102654.50;4966183;28;20039;-50
2022/03/09 04:35:38;;;;;;;25.98;12.27;;;;;;;-1.09;58.83;102646.72;4968583;28;20030;-48
2022/03/09 04:38:03;;;;;;;27.67;13.93;;;;;;;-1.10;58.31;102649.47;4966828;28;20045;-47
2022/03/09 04:40:29;;;;;;;29.65;14.65;;;;;;;-1.11;58.95;102656.53;4969986;28;20035;-48
2022/03/09 04:42:55;;;;;;;26.83;13.40;;;;;;;-1.12;58.59;102649.59;4969426;28;20026;-47
2022/03/09 04:45:20;;;;;;;26.08;13.38;;;;;;;-1.14;58.94;102650.69;4966585;28;20030;-49
2022/03/09 04:47:46;;;;;;;29.92;12.38;;;;;;;-1.15;58.23;102655.13;4971504;28;20018;-50
2022/03/09 04:50:12;;;;;;;27.45;12.55;;;;;;;-1.17;58.54;102650.94;4966527;28;20082;-47
2022/03/09 04:52:37;;;;;;;24.75;13.68;;;;;;;-1.18;58.65;102651.91;4969802;28;20027;-50
2022/03/09 04:55:03;;;;;;;24.52;13.05;;;;;;;-1.21;58.77;102655.63;4971202;28;20544;-47
2022/03/09 04:57:28;;;;;;;23.20;11.85;;;;;;;-1.22;59.08;102659.22;4966112;28;20505;-47
2022/03/09 04:59:54;;;;;;;24.38;11.52;;;;;;;-1.25;58.58;102657.69;4967934;28;20118;-49
2022/03/09 05:02:19;;;;;;;21.38;10.20;;;;;;;-1.26;58.54;102658.63;4969143;28;20489;-46
2022/03/09 05:04:45;;;;;;;18.35;9.30;;;;;;;-1.28;59.09;102659.69;4969926;28;20042;-49
2022/03/09 05:07:10;;;;;;;16.77;9.55;;;;;;;-1.29;58.90;102658.03;4973080;28;20105;-47
2022/03/09 05:09:36;;;;;;;20.70;10.20;;;;;;;-1.30;58.38;102656.34;4968536;28;21395;-47
2022/03/09 05:12:02;;;;;;;15.98;9.18;;;;;;;-1.32;58.72;102650.38;4967206;28;20035;-49
2022/03/09 05:14:28;;;;;;;15.02;8.40;;;;;;;-1.33;58.82;102656.59;4970618;28;20046;-49
2022/03/09 05:16:54;;;;;;;15.75;7.93;;;;;;;-1.35;59.09;102646.22;4968341;28;20046;-49
2022/03/09 05:19:19;;;;;;;16.63;8.88;;;;;;;-1.46;59.20;102648.84;4968579;28;20727;-48
2022/03/09 05:21:45;;;;;;;18.52;9.57;;;;;;;-1.49;58.91;102641.22;4971421;28;20069;-50
2022/03/09 05:24:11;;;;;;;17.42;9.10;;;;;;;-1.48;59.03;102637.63;4969241;28;20045;-46
2022/03/09 05:26:37;;;;;;;15.98;8.60;;;;;;;-1.48;59.24;102647.31;4967977;28;20026;-48
2022/03/09 05:29:02;;;;;;;19.70;8.75;;;;;;;-1.48;59.59;102647.31;4969841;28;20031;-47
2022/03/09 05:31:28;;;;;;;17.05;8.88;;;;;;;-1.50;58.62;102639.56;4969485;28;20035;-47
2022/03/09 05:33:53;;;;;;;20.50;9.80;;;;;;;-1.50;58.92;102655.31;4965908;28;20449;-47
2022/03/09 05:36:19;;;;;;;18.05;9.77;;;;;;;-1.50;59.28;102657.13;4969973;28;20540;-52
2022/03/09 05:38:45;;;;;;;19.25;9.55;;;;;;;-1.54;58.95;102662.63;4971909;28;20071;-52
2022/03/09 05:41:11;;;;;;;15.05;8.52;;;;;;;-1.55;58.48;102660.97;4970276;28;20030;-48
2022/03/09 05:43:36;;;;;;;18.05;9.05;;;;;;;-1.66;59.80;102660.97;4970303;28;20710;-46
2022/03/09 05:46:02;;;;;;;18.25;8.80;;;;;;;-1.87;60.15;102652.97;4969591;28;20031;-48
2022/03/09 05:48:28;;;;;;;16.23;9.30;;;;;;;-1.98;60.81;102665.28;4969211;28;20026;-49
2022/03/09 05:50:53;;;;;;;14.68;8.57;;;;;;;-1.93;60.76;102660.53;4969864;28;20042;-47
2022/03/09 05:53:19;;;;;;;19.48;8.55;;;;;;;-1.87;60.20;102658.25;4971837;28;20034;-49
2022/03/09 05:55:44;;;;;;;16.20;8.25;;;;;;;-1.79;59.86;102649.78;4971518;28;20401;-49
2022/03/09 05:58:10;;;;;;;16.92;8.40;;;;;;;-1.73;60.30;102654.53;4965357;28;20041;-49
2022/03/09 06:00:35;;;;;;;15.65;8.70;;;;;;;-1.67;59.67;102661.09;4964614;28;20026;-51
2022/03/09 06:03:01;;;;;;;20.15;8.80;;;;;;;-1.63;59.75;102668.59;4967895;28;20027;-47
2022/03/09 06:05:26;;;;;;;16.73;8.07;;;;;;;-1.58;59.91;102670.88;4968758;28;20311;-48
2022/03/09 06:07:52;;;;;;;17.05;8.52;;;;;;;-1.54;59.30;102681.03;4970735;28;20464;-46
2022/03/09 06:10:18;;;;;;;16.75;8.27;;;;;;;-1.49;59.35;102683.28;4959096;28;20043;-49
2022/03/09 06:12:43;;;;;;;17.45;8.60;;;;;;;-1.45;59.96;102687.34;4964463;28;20015;-49
2022/03/09 06:15:09;;;;;;;16.40;7.50;;;;;;;-1.38;59.52;102685.06;4965428;28;20042;-48
2022/03/09 06:17:49;;;;;;;15.88;8.23;;;;;;;-1.37;59.18;102692.84;4967466;28;20110;-50
2022/03/09 06:20:16;;;;;;;14.88;7.40;;;;;;;-1.27;59.35;102692.91;4966325;28;20069;-48
2022/03/09 06:22:42;;;;;;;16.05;9.07;;;;;;;-1.19;59.02;102693.16;4965925;28;20034;-48
2022/03/09 06:25:08;;;;;;;16.55;8.43;;;;;;;-1.13;59.51;102695.28;4969164;28;20058;-48
2022/03/09 06:27:41;;;;;;;13.32;7.22;;;;;;;-1.09;59.37;102691.44;4970039;28;20484;-47
2022/03/09 06:30:07;;;;;;;16.73;8.82;;;;;;;-0.98;59.33;102698.47;4960314;28;20045;-49
2022/03/09 06:32:34;;;;;;;15.88;8.05;;;;;;;-0.93;59.27;102699.75;4963491;28;20031;-47
2022/03/09 06:35:01;;;;;;;15.90;7.47;;;;;;;-0.86;59.70;102705.38;4969054;28;20073;-48
2022/03/09 06:37:26;;;;;;;19.33;9.40;;;;;;;-0.81;59.22;102711.09;4963611;28;20023;-47
2022/03/09 06:39:52;;;;;;;18.95;9.75;;;;;;;-0.72;59.11;102715.63;4970836;28;20440;-48
2022/03/09 06:42:17;;;;;;;20.00;9.52;;;;;;;-0.64;59.77;102722.88;4968730;28;20031;-51
2022/03/09 06:44:43;;;;;;;21.15;9.77;;;;;;;-0.57;59.71;102715.28;4970712;28;20504;-49
2022/03/09 06:47:08;;;;;;;22.58;10.75;;;;;;;-0.49;60.21;102720.78;4971720;28;20053;-48
2022/03/09 06:49:34;;;;;;;19.25;10.20;;;;;;;-0.41;59.65;102719.16;4963387;28;20031;-49
2022/03/09 06:52:00;;;;;;;20.45;10.40;;;;;;;-0.33;60.01;102719.38;4965905;28;20447;-51
2022/03/09 06:54:25;;;;;;;16.05;9.30;;;;;;;-0.25;59.84;102718.72;4963081;28;20050;-49
2022/03/09 06:56:53;;;;;;;21.98;10.07;;;;;;;-0.19;59.93;102712.91;4966348;28;20031;-47
2022/03/09 06:59:18;;;;;;;21.33;11.50;;;;;;;-0.08;59.99;102719.94;4967304;28;20085;-51
2022/03/09 07:01:44;;;;;;;24.95;11.52;;;;;;;0.01;60.29;102721.78;4968822;28;20034;-51
2022/03/09 07:04:09;;;;;;;24.40;11.23;;;;;;;0.09;60.37;102715.84;4971225;28;20861;-47
2022/03/09 07:06:35;;;;;;;20.27;11.18;;;;;;;0.18;60.52;102715.91;4965149;28;20062;-51
2022/03/09 07:09:00;;;;;;;27.60;11.65;;;;;;;0.27;60.64;102707.19;4969431;28;20027;-47
2022/03/09 07:11:26;;;;;;;25.65;12.63;;;;;;;0.38;60.55;102710.72;4966352;28;20027;-51
2022/03/09 07:13:51;;;;;;;23.58;12.43;;;;;;;0.48;60.46;102706.31;4963592;28;20412;-48
2022/03/09 07:16:17;;;;;;;27.10;13.00;;;;;;;0.59;60.89;102714.13;4970846;28;20603;-47
2022/03/09 07:18:42;;;;;;;27.42;12.90;;;;;;;0.70;60.86;102718.44;4969271;28;20080;-50
2022/03/09 07:21:08;;;;;;;29.80;13.43;;;;;;;0.82;60.95;102720.00;4967321;28;20056;-49
2022/03/09 07:23:33;;;;;;;28.33;13.48;;;;;;;0.93;60.52;102726.97;4970030;28;20023;-50
2022/03/09 07:25:59;;;;;;;28.67;13.90;;;;;;;1.02;60.83;102720.88;4964552;28;20097;-49
2022/03/09 07:28:24;;;;;;;29.85;13.77;;;;;;;1.12;60.78;102714.63;4970355;28;20493;-50
2022/03/09 07:30:50;;;;;;;30.42;13.80;;;;;;;1.24;61.03;102723.25;4962182;28;20034;-49
2022/03/09 07:33:16;;;;;;;32.65;15.15;;;;;;;1.36;61.04;102723.94;4963923;28;20069;-50
2022/03/09 07:35:41;;;;;;;32.35;14.27;;;;;;;1.47;61.42;102721.19;4962959;28;20034;-49
2022/03/09 07:38:10;;;;;;;33.63;13.38;;;;;;;1.59;61.38;102724.47;4963151;28;20030;-48
2022/03/09 07:40:35;;;;;;;28.98;12.95;;;;;;;1.71;61.63;102733.94;4963468;28;20023;-48
2022/03/09 07:43:01;;;;;;;29.42;12.63;;;;;;;1.83;61.20;102727.53;4963658;28;20081;-50
2022/03/09 07:45:26;;;;;;;28.30;12.52;;;;;;;1.97;61.43;102728.88;4963673;28;20061;-48
2022/03/09 07:47:52;;;;;;;25.83;11.52;;;;;;;2.10;61.17;102730.22;4963606;28;20029;-49
2022/03/09 07:50:17;;;;;;;28.45;12.32;;;;;;;2.24;61.29;102725.47;4964030;28;20449;-47
2022/03/09 07:52:43;;;;;;;27.90;11.82;;;;;;;2.37;61.04;102726.81;4966375;28;21665;-52
2022/03/09 07:55:09;;;;;;;21.83;11.38;;;;;;;2.51;61.23;102721.97;4968103;28;20034;-48
2022/03/09 07:57:35;;;;;;;22.98;10.73;;;;;;;2.64;61.04;102722.47;4966211;28;20015;-51
2022/03/09 08:00:00;;;;;;;26.05;11.35;;;;;;;2.76;60.81;102723.13;4963810;28;20042;-50
2022/03/09 08:02:26;;;;;;;23.90;11.43;;;;;;;2.91;60.37;102727.78;4963437;28;20035;-50
2022/03/09 08:04:52;;;;;;;22.10;11.70;;;;;;;3.02;60.57;102726.72;4956011;28;20530;-50
2022/03/09 08:07:17;;;;;;;20.23;11.85;;;;;;;3.16;60.37;102723.53;4964719;28;20031;-47
2022/03/09 08:09:43;;;;;;;28.42;13.07;;;;;;;3.30;60.19;102728.31;4966178;28;20026;-53
2022/03/09 08:12:11;;;;;;;23.45;11.32;;;;;;;3.40;59.82;102730.88;4966753;28;20038;-47
2022/03/09 08:14:38;;;;;;;23.33;11.82;;;;;;;3.55;60.15;102731.16;4965818;28;20037;-47
2022/03/09 08:17:04;;;;;;;24.38;10.65;;;;;;;3.69;59.43;102727.16;4962042;28;20031;-48
2022/03/09 08:19:29;;;;;;;22.90;11.15;;;;;;;3.84;59.45;102728.25;4963897;28;20030;-48
2022/03/09 08:21:55;;;;;;;25.00;13.27;;;;;;;3.97;59.20;102719.91;4966311;28;20077;-50
2022/03/09 08:24:21;;;;;;;22.42;11.45;;;;;;;4.05;59.01;102725.22;4964245;28;20031;-50
2022/03/09 08:26:46;;;;;;;18.13;10.05;;;;;;;4.12;58.67;102728.91;4967021;28;20030;-48
2022/03/09 08:29:13;;;;;;;19.15;9.70;;;;;;;4.19;58.50;102732.63;4966433;28;20030;-53
2022/03/09 08:31:38;;;;;;;21.20;9.23;;;;;;;4.34;58.34;102728.41;4963098;28;20086;-52
2022/03/09 08:34:04;;;;;;;20.85;8.38;;;;;;;4.48;58.21;102726.94;4964907;28;20035;-48
2022/03/09 08:36:29;;;;;;;15.88;8.65;;;;;;;4.66;58.12;102726.84;4962359;28;20504;-52
2022/03/09 08:38:55;;;;;;;19.58;8.95;;;;;;;4.78;58.04;102722.91;4958493;28;20494;-48
2022/03/09 08:41:25;;;;;;;13.07;7.70;;;;;;;4.91;57.74;102722.47;4956015;28;20018;-52
2022/03/09 08:43:51;;;;;;;15.10;8.80;;;;;;;5.06;57.52;102723.50;4959033;28;20027;-50
2022/03/09 08:46:17;;;;;;;15.13;7.70;;;;;;;5.22;57.34;102720.84;4956802;28;20035;-52
2022/03/09 08:48:43;;;;;;;14.07;8.27;;;;;;;5.35;57.13;102715.88;4949276;28;20365;-49
2022/03/09 08:51:09;;;;;;;16.52;7.65;;;;;;;5.47;56.92;102713.72;4961439;28;20031;-47
2022/03/09 08:53:34;;;;;;;15.73;7.97;;;;;;;5.64;56.72;102718.03;4954456;28;20022;-50
2022/03/09 08:56:00;;;;;;;14.85;7.82;;;;;;;5.73;56.36;102725.00;4961470;28;20030;-53
2022/03/09 08:58:25;;;;;;;14.95;7.97;;;;;;;5.85;56.35;102727.31;4960133;28;20027;-53
2022/03/09 09:00:51;;;;;;;15.32;7.40;;;;;;;5.97;56.08;102726.84;4963551;28;20023;-52
2022/03/09 09:03:16;;;;;;;13.90;7.78;;;;;;;6.10;56.04;102718.31;4957751;28;20614;-54
2022/03/09 09:05:42;;;;;;;14.57;7.57;;;;;;;6.25;55.60;102724.59;4942464;28;20050;-51
2022/03/09 09:08:08;;;;;;;11.35;7.03;;;;;;;6.42;55.36;102719.22;4960950;28;20397;-49
2022/03/09 09:10:35;;;;;;;13.18;7.22;;;;;;;6.54;55.09;102723.16;4955924;28;20033;-53
2022/03/09 09:13:01;;;;;;;12.73;7.95;;;;;;;6.65;55.25;102726.28;4962416;28;20039;-52
2022/03/09 09:15:29;;;;;;;14.18;7.63;;;;;;;6.77;55.24;102729.38;4958936;28;20115;-50
2022/03/09 09:18:02;;;;;;;12.70;7.25;;;;;;;6.89;54.36;102727.16;4951256;28;20058;-49
2022/03/09 09:20:28;;;;;;;14.00;7.45;;;;;;;7.02;54.72;102731.94;4956227;28;20576;-51
2022/03/09 09:22:55;;;;;;;13.25;7.93;;;;;;;7.16;54.24;102737.31;4959782;28;20503;-50
2022/03/09 09:25:21;;;;;;;13.25;6.93;;;;;;;7.28;54.12;102735.06;4960627;28;20038;-50
2022/03/09 09:27:47;;;;;;;15.48;7.35;;;;;;;7.35;53.47;102743.19;4963188;28;20023;-48
2022/03/09 09:30:13;;;;;;;14.52;7.43;;;;;;;7.45;53.40;102749.13;4956925;28;20202;-51
2022/03/09 09:32:38;;;;;;;12.02;6.60;;;;;;;7.57;53.41;102743.19;4959685;28;20030;-49
2022/03/09 09:35:05;;;;;;;12.27;7.25;;;;;;;7.71;53.08;102748.72;4962292;28;20117;-49
2022/03/09 09:37:31;;;;;;;12.57;7.55;;;;;;;7.82;52.46;102750.97;4963272;28;20030;-50
2022/03/09 09:39:56;;;;;;;11.88;7.32;;;;;;;7.96;52.62;102749.34;4965184;28;20026;-53
2022/03/09 09:42:30;;;;;;;13.05;6.55;;;;;;;8.10;52.40;102748.53;4957530;28;20085;-51
2022/03/09 09:44:58;;;;;;;11.53;6.80;;;;;;;8.25;52.04;102753.88;4963738;28;20030;-48
2022/03/09 09:47:24;;;;;;;11.13;6.85;;;;;;;8.39;51.41;102755.75;4961037;28;20065;-53
2022/03/09 09:49:52;;;;;;;11.98;6.43;;;;;;;8.50;51.62;102746.47;4932192;23;1295910;-49
2022/03/09 09:52:19;;;;;;;11.98;6.57;;;;;;;8.61;51.55;102746.78;4960096;28;20061;-50
2022/03/09 09:54:48;;;;;;;8.95;5.75;;;;;;;8.69;50.96;102749.38;4956664;28;20066;-52
2022/03/09 09:57:15;;;;;;;8.88;5.05;;;;;;;8.80;50.65;102745.41;4959954;28;20035;-48
2022/03/09 09:59:42;;;;;;;12.13;5.20;;;;;;;8.92;50.43;102743.88;4960214;28;20504;-48
2022/03/09 10:02:08;;;;;;;8.23;5.38;;;;;;;9.05;50.06;102748.56;4939918;28;20062;-52
2022/03/09 10:04:34;;;;;;;8.35;4.03;;;;;;;9.10;49.13;102740.78;4936677;29;20027;-51
2022/03/09 10:07:00;;;;;;;9.88;5.45;;;;;;;9.12;48.73;102752.13;4937022;28;20280;-50
2022/03/09 10:09:38;;;;;;;9.70;4.50;;;;;;;9.07;47.10;102749.19;4941144;29;20041;-53
2022/03/09 10:12:05;;;;;;;11.05;4.28;;;;;;;9.11;47.39;102746.97;4938925;29;20031;-51
2022/03/09 10:14:50;;;;;;;9.00;4.80;;;;;;;8.99;46.32;102743.97;4945160;28;20015;-52
2022/03/09 10:17:20;;;;;;;8.93;5.22;;;;;;;9.08;46.73;102748.19;4931128;29;20134;-50
2022/03/09 10:19:50;;;;;;;9.57;5.00;;;;;;;9.14;47.11;102747.41;4943654;28;20792;-52
2022/03/09 10:22:30;;;;;;;9.95;4.50;;;;;;;9.10;46.51;102748.81;4943391;28;20031;-52
2022/03/09 10:25:15;;;;;;;8.07;4.60;;;;;;;9.28;46.16;102741.19;4941352;29;20051;-51
2022/03/09 10:27:49;;;;;;;8.38;4.85;;;;;;;9.41;46.18;102755.72;4944637;28;20050;-50
2022/03/09 10:30:17;;;;;;;10.55;5.10;;;;;;;9.53;46.07;102752.34;4945190;28;20868;-51
2022/03/09 10:32:52;;;;;;;11.00;5.03;;;;;;;9.68;45.79;102757.59;4941797;28;20326;-51
2022/03/09 10:35:40;;;;;;;8.90;4.43;;;;;;;9.81;45.51;102762.25;4946369;28;20098;-51
2022/03/09 10:38:26;;;;;;;8.40;5.30;;;;;;;9.95;45.12;102751.44;4944674;28;20047;-49
2022/03/09 10:40:55;;;;;;;10.30;6.25;;;;;;;10.14;45.43;102752.59;4943661;28;20444;-50
2022/03/09 10:43:30;;;;;;;8.77;5.25;;;;;;;10.25;45.37;102748.59;4938862;28;20032;-48
2022/03/09 10:46:12;;;;;;;8.98;5.50;;;;;;;10.35;45.18;102746.38;4934318;28;20031;-53
2022/03/09 10:49:02;;;;;;;8.35;5.25;;;;;;;10.50;44.59;102741.72;4943330;28;20397;-52
2022/03/09 10:51:30;;;;;;;9.35;5.22;;;;;;;10.71;45.31;102747.97;4941011;28;20254;-50
2022/03/09 10:53:57;;;;;;;10.32;5.10;;;;;;;10.79;45.03;102739.78;4938529;29;20544;-53
2022/03/09 10:56:23;;;;;;;9.10;5.35;;;;;;;10.89;44.62;102737.53;4944858;29;20090;-49
2022/03/09 10:58:49;;;;;;;9.27;5.50;;;;;;;11.01;44.62;102735.09;4937685;28;20034;-52
2022/03/09 11:01:20;;;;;;;10.95;5.97;;;;;;;11.09;44.15;102726.84;4943046;28;20031;-52
2022/03/09 11:03:46;;;;;;;7.22;5.47;;;;;;;11.06;44.02;102728.09;4934264;29;20062;-49
2022/03/09 11:06:12;;;;;;;10.07;5.25;;;;;;;11.03;43.69;102725.81;4937917;29;20042;-52
2022/03/09 11:08:39;;;;;;;8.25;4.55;;;;;;;10.98;43.22;102727.47;4941794;28;20026;-52
2022/03/09 11:11:06;;;;;;;8.48;4.82;;;;;;;10.97;43.31;102729.31;4938953;29;20360;-51
2022/03/09 11:13:34;;;;;;;9.27;4.85;;;;;;;11.06;43.06;102730.78;4942503;28;20113;-52
2022/03/09 11:16:00;;;;;;;7.40;4.47;;;;;;;11.21;43.08;102727.91;4940504;28;20483;-52
2022/03/09 11:18:28;;;;;;;8.90;5.50;;;;;;;11.38;42.76;102723.81;4943137;28;20135;-50